Time;durP1;ratioP1;P1;durP2;ratioP2;P2;SDS_P1;SDS_P2;PMS_P1;PMS_P2;Temp;Humidity;BMP_temperature;BMP_pressure;BME280_temperature;BME280_humidity;BME280_pressure;Samples;Min_cycle;Max_cycle;Signal;HPM_P1;HPM_P2
2022/05/06 00:00:20;;;;;;;12.13;10.83;;;;;20.80;101297.00;;;;2070329;28;20536;-46
2022/05/06 00:01:20;;;;;;;13.47;12.17;;;;;20.80;101299.00;;;;2069908;28;20213;-47
2022/05/06 00:02:21;;;;;;;9.73;8.83;;;;;20.80;101299.00;;;;2070120;28;20544;-46
2022/05/06 00:03:22;;;;;;;10.43;9.33;;;;;20.80;101297.00;;;;2069859;28;20269;-46
2022/05/06 00:04:24;;;;;;;9.47;8.57;;;;;20.80;101294.00;;;;2069662;28;20678;-45
2022/05/06 00:05:24;;;;;;;10.32;9.23;;;;;20.80;101294.00;;;;2068420;28;20212;-49
2022/05/06 00:06:25;;;;;;;10.90;9.80;;;;;20.80;101296.00;;;;2070009;28;20204;-47
2022/05/06 00:07:25;;;;;;;10.17;8.40;;;;;20.80;101298.00;;;;2069565;28;20202;-48
2022/05/06 00:08:25;;;;;;;10.77;9.17;;;;;20.80;101302.00;;;;2069705;28;20202;-47
2022/05/06 00:09:26;;;;;;;11.17;9.40;;;;;20.80;101301.00;;;;2068876;28;20575;-47
2022/05/06 00:10:26;;;;;;;10.57;9.37;;;;;20.80;101294.00;;;;2070033;28;20619;-45
2022/05/06 00:11:27;;;;;;;10.27;9.23;;;;;20.80;101299.00;;;;2070292;28;20245;-46
2022/05/06 00:12:28;;;;;;;8.98;8.02;;;;;20.80;101298.00;;;;2069639;28;20801;-47
2022/05/06 00:13:28;;;;;;;10.33;9.33;;;;;20.80;101298.00;;;;2069894;28;20218;-47
2022/05/06 00:14:28;;;;;;;10.53;9.53;;;;;20.80;101302.00;;;;2070067;28;21560;-46
2022/05/06 00:15:29;;;;;;;10.27;9.27;;;;;20.80;101296.00;;;;2069732;28;20290;-46
2022/05/06 00:16:29;;;;;;;10.53;9.43;;;;;20.80;101303.00;;;;2070518;28;20226;-48
2022/05/06 00:17:29;;;;;;;9.90;8.83;;;;;20.80;101307.00;;;;2070297;28;20249;-47
2022/05/06 00:18:31;;;;;;;10.20;9.20;;;;;20.80;101304.00;;;;2070446;28;20231;-46
2022/05/06 00:19:31;;;;;;;11.80;10.15;;;;;20.80;101300.00;;;;2072178;28;20249;-47
2022/05/06 00:20:32;;;;;;;11.10;8.60;;;;;20.80;101303.00;;;;2078686;28;20674;-47
2022/05/06 00:21:32;;;;;;;9.80;8.80;;;;;20.80;101302.00;;;;2078719;28;20593;-47
2022/05/06 00:22:32;;;;;;;8.40;7.60;;;;;20.80;101300.00;;;;2078770;28;20233;-46
2022/05/06 00:23:33;;;;;;;9.80;8.90;;;;;20.80;101304.00;;;;2078748;28;20210;-47
2022/05/06 00:24:33;;;;;;;8.60;7.83;;;;;20.80;101303.00;;;;2078201;28;20217;-47
2022/05/06 00:25:33;;;;;;;8.73;7.83;;;;;20.80;101299.00;;;;2077563;28;20229;-48
2022/05/06 00:26:34;;;;;;;10.70;8.50;;;;;20.80;101303.00;;;;2078618;28;20245;-49
2022/05/06 00:27:34;;;;;;;8.50;7.70;;;;;20.80;101304.00;;;;2078630;28;20220;-47
2022/05/06 00:28:35;;;;;;;8.80;7.90;;;;;20.80;101308.00;;;;2077773;28;20585;-47
2022/05/06 00:29:36;;;;;;;9.90;8.48;;;;;20.80;101302.00;;;;2071256;28;20658;-48
2022/05/06 00:30:36;;;;;;;8.47;7.53;;;;;20.80;101300.00;;;;2070435;28;20246;-47
2022/05/06 00:31:36;;;;;;;8.53;7.77;;;;;20.80;101307.00;;;;2070538;28;20233;-48
2022/05/06 00:32:37;;;;;;;8.93;8.03;;;;;20.80;101300.00;;;;2070448;28;20229;-47
2022/05/06 00:33:37;;;;;;;9.17;8.23;;;;;20.70;101301.00;;;;2070562;28;20304;-47
2022/05/06 00:34:37;;;;;;;7.60;6.90;;;;;20.70;101302.00;;;;2070024;28;20741;-46
2022/05/06 00:35:38;;;;;;;8.00;7.20;;;;;20.70;101293.00;;;;2069817;28;20714;-46
2022/05/06 00:36:38;;;;;;;8.37;7.47;;;;;20.70;101297.00;;;;2070320;28;20222;-47
2022/05/06 00:37:39;;;;;;;7.20;6.53;;;;;20.70;101306.00;;;;2069829;28;20241;-47
2022/05/06 00:38:39;;;;;;;7.93;7.23;;;;;20.70;101295.00;;;;2069930;28;20245;-46
2022/05/06 00:39:40;;;;;;;9.27;8.30;;;;;20.70;101308.00;;;;2074426;28;20313;-46
2022/05/06 00:40:40;;;;;;;8.03;7.13;;;;;20.70;101306.00;;;;2078728;28;20217;-46
2022/05/06 00:41:40;;;;;;;7.87;7.10;;;;;20.70;101305.00;;;;2078675;28;20217;-47
2022/05/06 00:42:41;;;;;;;7.27;6.57;;;;;20.70;101305.00;;;;2075043;28;20271;-46
2022/05/06 00:43:42;;;;;;;7.40;6.70;;;;;20.70;101306.00;;;;2078746;28;20301;-46
2022/05/06 00:44:43;;;;;;;7.03;6.32;;;;;20.70;101305.00;;;;2078458;28;20221;-49
2022/05/06 00:45:52;;;;;;;7.33;6.70;;;;;20.70;101306.00;;;;2076808;28;20621;-47
2022/05/06 00:46:52;;;;;;;8.00;7.30;;;;;20.70;101327.00;;;;2081169;28;20324;-46
2022/05/06 00:47:53;;;;;;;6.10;5.60;;;;;20.70;101306.00;;;;2073575;28;20702;-49
2022/05/06 00:48:55;;;;;;;6.80;6.20;;;;;20.70;101309.00;;;;2070444;28;20210;-47
2022/05/06 00:49:55;;;;;;;7.57;6.78;;;;;20.70;101305.00;;;;2069695;28;20272;-47
2022/05/06 00:50:57;;;;;;;7.07;6.37;;;;;20.70;101306.00;;;;2061724;28;21357;-47
2022/05/06 00:51:58;;;;;;;6.47;5.88;;;;;20.70;101292.00;;;;2069759;28;20306;-46
2022/05/06 00:52:59;;;;;;;7.70;7.00;;;;;20.70;101308.00;;;;2069597;28;20225;-46
2022/05/06 00:53:59;;;;;;;7.00;6.30;;;;;20.70;101307.00;;;;2053650;28;20231;-47
2022/05/06 00:54:59;;;;;;;7.13;6.43;;;;;20.70;101308.00;;;;2064100;28;20309;-46
2022/05/06 00:56:00;;;;;;;6.73;6.13;;;;;20.70;101298.00;;;;2069872;28;20242;-47
2022/05/06 00:57:00;;;;;;;6.50;5.90;;;;;20.70;101304.00;;;;2069474;28;20222;-46
2022/05/06 00:58:02;;;;;;;6.93;6.33;;;;;20.70;101306.00;;;;2069282;28;20242;-46
2022/05/06 00:59:02;;;;;;;6.90;6.20;;;;;20.70;101307.00;;;;2069774;28;20711;-47
2022/05/06 01:00:18;;;;;;;7.23;6.53;;;;;20.70;101309.00;;;;2070497;28;20341;-47
2022/05/06 01:01:19;;;;;;;6.60;6.00;;;;;20.70;101306.00;;;;2075696;28;20216;-46
2022/05/06 01:02:20;;;;;;;6.33;5.73;;;;;20.70;101305.00;;;;2079767;28;20220;-48
2022/05/06 01:03:20;;;;;;;8.00;6.07;;;;;20.70;101312.00;;;;2080069;28;20209;-47
2022/05/06 01:04:21;;;;;;;7.20;6.50;;;;;20.70;101306.00;;;;2080141;28;20705;-47
2022/05/06 01:05:22;;;;;;;8.97;6.00;;;;;20.60;101307.00;;;;2070450;28;20695;-47
2022/05/06 01:06:22;;;;;;;6.63;5.95;;;;;20.70;101305.00;;;;2071240;28;21165;-46
2022/05/06 01:07:23;;;;;;;6.10;5.60;;;;;20.60;101305.00;;;;2069546;28;20260;-46
2022/05/06 01:08:23;;;;;;;6.77;6.17;;;;;20.60;101320.00;;;;2070988;28;20207;-47
2022/05/06 01:09:23;;;;;;;6.70;6.03;;;;;20.60;101306.00;;;;2071296;28;20202;-47
2022/05/06 01:10:24;;;;;;;6.80;6.20;;;;;20.60;101310.00;;;;2071835;28;20718;-47
2022/05/06 01:11:24;;;;;;;6.20;5.67;;;;;20.60;101301.00;;;;2071937;28;20226;-47
2022/05/06 01:12:24;;;;;;;6.30;5.67;;;;;20.60;101301.00;;;;2063100;28;20211;-47
2022/05/06 01:13:25;;;;;;;5.97;5.47;;;;;20.60;101308.00;;;;2063048;28;20207;-47
2022/05/06 01:14:32;;;;;;;6.43;5.40;;;;;20.60;101301.00;;;;2073130;28;20272;-48
2022/05/06 01:15:32;;;;;;;5.93;5.40;;;;;20.60;101316.00;;;;2079306;28;20335;-47
2022/05/06 01:16:34;;;;;;;6.10;5.50;;;;;20.60;101309.00;;;;2079430;28;20213;-47
2022/05/06 01:17:34;;;;;;;5.72;5.22;;;;;20.70;101304.00;;;;2078932;28;20221;-47
2022/05/06 01:18:35;;;;;;;6.20;5.60;;;;;20.60;101311.00;;;;2079361;28;20304;-48
2022/05/06 01:19:35;;;;;;;7.13;6.50;;;;;20.60;101312.00;;;;2079385;28;20742;-47
2022/05/06 01:20:37;;;;;;;6.50;5.90;;;;;20.60;101315.00;;;;2079234;28;20702;-47
2022/05/06 01:21:39;;;;;;;5.80;5.40;;;;;20.60;101314.00;;;;2079247;28;20372;-46
2022/05/06 01:22:39;;;;;;;6.10;5.60;;;;;20.60;101313.00;;;;2078434;28;20249;-44
2022/05/06 01:23:39;;;;;;;7.93;6.40;;;;;20.60;101309.00;;;;2078664;28;20213;-45
2022/05/06 01:24:40;;;;;;;5.80;5.30;;;;;20.60;101318.00;;;;2078740;28;20352;-46
2022/05/06 01:25:40;;;;;;;5.80;5.30;;;;;20.60;101303.00;;;;2078326;28;20279;-46
2022/05/06 01:26:55;;;;;;;5.90;5.30;;;;;20.60;101314.00;;;;2064257;28;20228;-47
2022/05/06 01:28:03;;;;;;;6.22;5.70;;;;;20.60;101311.00;;;;2069728;28;20233;-46
2022/05/06 01:29:03;;;;;;;5.68;5.18;;;;;20.60;101311.00;;;;2078378;28;20221;-49
2022/05/06 01:30:04;;;;;;;5.67;5.17;;;;;20.60;101309.00;;;;2069187;28;20215;-47
2022/05/06 01:31:04;;;;;;;5.37;4.87;;;;;20.60;101286.00;;;;2069863;28;20298;-46
2022/05/06 01:32:05;;;;;;;6.10;5.60;;;;;20.60;101310.00;;;;2079260;28;20522;-46
2022/05/06 01:33:12;;;;;;;6.63;5.93;;;;;20.60;101306.00;;;;2079373;28;20202;-47
2022/05/06 01:34:14;;;;;;;4.95;4.55;;;;;20.60;101308.00;;;;2078893;28;20222;-47
2022/05/06 01:35:14;;;;;;;5.50;5.00;;;;;20.60;101309.00;;;;2062946;28;20268;-46
2022/05/06 01:36:16;;;;;;;6.50;5.90;;;;;20.60;101316.00;;;;2061765;28;20646;-47
2022/05/06 01:37:16;;;;;;;5.80;5.30;;;;;20.60;101310.00;;;;2058616;28;20271;-47
2022/05/06 01:38:20;;;;;;;5.43;4.93;;;;;20.60;101320.00;;;;2067900;28;20253;-46
2022/05/06 01:39:23;;;;;;;5.25;4.50;;;;;20.60;101316.00;;;;2063220;28;20222;-46
2022/05/06 01:40:24;;;;;;;6.03;5.53;;;;;20.60;101319.00;;;;2070307;28;20260;-46
2022/05/06 01:41:26;;;;;;;5.33;4.90;;;;;20.60;101318.00;;;;2070114;28;20210;-47
2022/05/06 01:42:26;;;;;;;6.95;4.90;;;;;20.60;101316.00;;;;2076318;28;20977;-46
2022/05/06 01:43:27;;;;;;;6.23;5.70;;;;;20.60;101310.00;;;;2078509;28;20287;-46
2022/05/06 01:44:29;;;;;;;5.55;4.97;;;;;20.60;101324.00;;;;2070165;28;20214;-46
2022/05/06 01:45:30;;;;;;;4.95;4.55;;;;;20.60;101315.00;;;;2064287;28;20215;-46
2022/05/06 01:46:31;;;;;;;6.05;5.45;;;;;20.60;101313.00;;;;2062299;28;20207;-46
2022/05/06 01:47:31;;;;;;;5.80;5.23;;;;;20.60;101318.00;;;;2068728;28;20715;-46
2022/05/06 01:48:32;;;;;;;5.90;5.40;;;;;20.60;101319.00;;;;2069978;28;20585;-46
2022/05/06 01:49:32;;;;;;;4.93;4.43;;;;;20.60;101312.00;;;;2070232;28;20231;-49
2022/05/06 01:50:32;;;;;;;5.50;5.00;;;;;20.60;101323.00;;;;2070449;28;20214;-48
2022/05/06 01:51:33;;;;;;;5.30;4.80;;;;;20.60;101321.00;;;;2063087;28;20234;-47
2022/05/06 01:52:34;;;;;;;5.73;5.23;;;;;20.60;101318.00;;;;2070162;28;20297;-46
2022/05/06 01:53:34;;;;;;;5.27;4.60;;;;;20.60;101312.00;;;;2075700;28;20470;-49
2022/05/06 01:54:35;;;;;;;5.53;4.93;;;;;20.60;101311.00;;;;2079041;28;20236;-47
2022/05/06 01:55:35;;;;;;;5.27;4.80;;;;;20.60;101317.00;;;;2078878;28;20228;-47
2022/05/06 01:56:36;;;;;;;4.67;4.27;;;;;20.60;101323.00;;;;2079483;28;20214;-47
2022/05/06 01:57:36;;;;;;;5.50;4.90;;;;;20.60;101321.00;;;;2079602;28;20474;-46
2022/05/06 01:58:36;;;;;;;5.00;4.60;;;;;20.60;101319.00;;;;2079429;28;20210;-47
2022/05/06 01:59:37;;;;;;;4.80;4.40;;;;;20.60;101322.00;;;;2079740;28;20225;-48
2022/05/06 02:00:37;;;;;;;4.23;3.93;;;;;20.60;101320.00;;;;2079593;28;20288;-47
2022/05/06 02:01:37;;;;;;;4.57;4.17;;;;;20.60;101318.00;;;;2071522;28;20214;-47
2022/05/06 02:02:38;;;;;;;4.67;4.17;;;;;20.50;101317.00;;;;2071688;28;20222;-48
2022/05/06 02:06:16;;;;;;;4.53;4.22;;;;;20.50;101320.00;;;;2078738;28;20201;-48
2022/05/06 02:07:16;;;;;;;4.77;4.37;;;;;20.50;101322.00;;;;2079443;28;20257;-48
2022/05/06 02:08:16;;;;;;;5.80;5.17;;;;;20.50;101317.00;;;;2079728;28;20217;-47
2022/05/06 02:09:17;;;;;;;4.77;4.37;;;;;20.60;101319.00;;;;2071462;28;20345;-47
2022/05/06 02:10:17;;;;;;;5.10;4.60;;;;;20.60;101314.00;;;;2071464;28;20297;-48
2022/05/06 02:11:18;;;;;;;5.10;4.60;;;;;20.50;101319.00;;;;2070677;28;20242;-48
2022/05/06 02:12:18;;;;;;;4.70;4.30;;;;;20.50;101326.00;;;;2071034;28;20213;-47
2022/05/06 02:13:19;;;;;;;6.13;4.80;;;;;20.50;101315.00;;;;2071230;28;20667;-48
2022/05/06 02:14:19;;;;;;;5.20;4.70;;;;;20.50;101334.00;;;;2071045;28;20210;-48
2022/05/06 02:15:20;;;;;;;5.10;4.60;;;;;20.60;101319.00;;;;2069861;28;20666;-47
2022/05/06 02:16:20;;;;;;;5.07;4.67;;;;;20.50;101317.00;;;;2070629;28;20206;-48
2022/05/06 02:17:20;;;;;;;5.40;4.90;;;;;20.50;101316.00;;;;2071194;28;20225;-48
2022/05/06 02:18:21;;;;;;;6.03;4.57;;;;;20.50;101321.00;;;;2071254;28;20293;-48
2022/05/06 02:19:21;;;;;;;5.03;4.47;;;;;20.50;101319.00;;;;2070971;28;20213;-47
2022/05/06 02:20:21;;;;;;;4.47;4.07;;;;;20.50;101323.00;;;;2077962;28;20214;-48
2022/05/06 02:21:22;;;;;;;5.40;4.90;;;;;20.50;101319.00;;;;2079011;28;20217;-47
2022/05/06 02:22:23;;;;;;;4.87;4.43;;;;;20.50;101320.00;;;;2079419;28;20723;-48
2022/05/06 02:23:24;;;;;;;5.70;5.20;;;;;20.50;101312.00;;;;2079460;28;20260;-48
2022/05/06 02:24:25;;;;;;;4.30;3.90;;;;;20.50;101319.00;;;;2079465;28;20217;-48
2022/05/06 02:25:25;;;;;;;5.03;4.60;;;;;20.50;101308.00;;;;2078418;28;20300;-48
2022/05/06 02:26:25;;;;;;;4.60;4.20;;;;;20.50;101315.00;;;;2079477;28;20263;-48
2022/05/06 02:27:25;;;;;;;5.73;5.20;;;;;20.50;101312.00;;;;2079489;28;20209;-48
2022/05/06 02:28:26;;;;;;;4.67;4.27;;;;;20.50;101319.00;;;;2079236;28;20221;-48
2022/05/06 02:29:26;;;;;;;5.47;4.90;;;;;20.50;101314.00;;;;2079410;28;20246;-47
2022/05/06 02:33:14;;;;;;;5.10;4.60;;;;;20.50;101316.00;;;;2076428;28;20213;-46
2022/05/06 02:34:18;;;;;;;5.30;4.80;;;;;20.50;101320.00;;;;2079361;28;20240;-46
2022/05/06 02:35:18;;;;;;;4.75;4.35;;;;;20.50;101318.00;;;;2078685;28;20229;-47
2022/05/06 02:36:19;;;;;;;4.97;4.43;;;;;20.50;101320.00;;;;2079050;28;20209;-46
2022/05/06 02:37:19;;;;;;;4.97;4.57;;;;;20.50;101325.00;;;;2079073;28;20210;-47
2022/05/06 02:38:20;;;;;;;4.70;4.30;;;;;20.50;101315.00;;;;2079102;28;20216;-46
2022/05/06 02:39:21;;;;;;;4.93;4.53;;;;;20.50;101318.00;;;;2079425;28;20289;-50
2022/05/06 02:40:21;;;;;;;4.73;4.33;;;;;20.50;101320.00;;;;2079457;28;20217;-46
2022/05/06 02:41:22;;;;;;;5.20;4.80;;;;;20.50;101332.00;;;;2079546;28;20218;-46
2022/05/06 02:42:24;;;;;;;4.97;4.57;;;;;20.50;101330.00;;;;2074427;28;20733;-46
2022/05/06 02:43:24;;;;;;;5.00;4.50;;;;;20.50;101323.00;;;;2071190;28;20222;-47
2022/05/06 02:44:25;;;;;;;5.20;4.80;;;;;20.50;101322.00;;;;2070846;28;20238;-46
2022/05/06 02:45:25;;;;;;;4.40;4.03;;;;;20.50;101326.00;;;;2070285;28;20460;-47
2022/05/06 02:46:26;;;;;;;4.57;4.17;;;;;20.50;101318.00;;;;2071249;28;20225;-47
2022/05/06 02:47:26;;;;;;;5.00;4.50;;;;;20.50;101327.00;;;;2070948;28;20718;-46
2022/05/06 02:48:26;;;;;;;4.70;4.30;;;;;20.50;101324.00;;;;2071214;28;20686;-46
2022/05/06 02:49:27;;;;;;;4.60;4.13;;;;;20.50;101317.00;;;;2076468;28;20213;-46
2022/05/06 02:50:27;;;;;;;6.20;4.03;;;;;20.50;101317.00;;;;2078774;28;20248;-46
2022/05/06 02:51:28;;;;;;;5.33;4.83;;;;;20.50;101321.00;;;;2079372;28;20275;-49
2022/05/06 02:52:28;;;;;;;4.55;4.15;;;;;20.50;101315.00;;;;2079405;28;20217;-46
2022/05/06 02:53:29;;;;;;;5.10;4.63;;;;;20.40;101316.00;;;;2078865;28;20201;-46
2022/05/06 02:54:30;;;;;;;4.87;4.47;;;;;20.40;101310.00;;;;2079063;28;20217;-45
2022/05/06 02:55:32;;;;;;;4.88;4.47;;;;;20.50;101309.00;;;;2078187;28;20678;-46
2022/05/06 02:56:33;;;;;;;4.57;4.18;;;;;20.40;101314.00;;;;2079022;28;20225;-49
2022/05/06 02:57:33;;;;;;;4.23;3.83;;;;;20.40;101309.00;;;;2079055;28;20245;-46
2022/05/06 02:58:33;;;;;;;4.17;3.80;;;;;20.40;101309.00;;;;2078638;28;20697;-46
2022/05/06 02:59:34;;;;;;;4.40;4.00;;;;;20.50;101313.00;;;;2078941;28;20679;-50
2022/05/06 03:00:34;;;;;;;5.13;4.00;;;;;20.40;101305.00;;;;2079176;28;20217;-49
2022/05/06 03:01:34;;;;;;;4.77;4.37;;;;;20.40;101308.00;;;;2079269;28;20198;-49
2022/05/06 03:02:35;;;;;;;5.60;4.67;;;;;20.40;101306.00;;;;2079313;28;20229;-47
2022/05/06 03:03:36;;;;;;;4.30;4.00;;;;;20.40;101306.00;;;;2079142;28;20214;-47
2022/05/06 03:04:36;;;;;;;4.72;4.38;;;;;20.40;101313.00;;;;2077878;28;20214;-49
2022/05/06 03:05:37;;;;;;;5.13;4.60;;;;;20.40;101307.00;;;;2077672;28;20229;-46
2022/05/06 03:06:39;;;;;;;4.83;4.43;;;;;20.40;101302.00;;;;2079069;28;20210;-46
2022/05/06 03:07:41;;;;;;;5.03;4.53;;;;;20.40;101301.00;;;;2079142;28;20304;-46
2022/05/06 03:08:41;;;;;;;4.57;4.18;;;;;20.40;101293.00;;;;2079058;28;20573;-46
2022/05/06 03:09:42;;;;;;;4.37;3.60;;;;;20.40;101302.00;;;;2079017;28;20216;-46
2022/05/06 03:10:42;;;;;;;5.00;4.23;;;;;20.40;101300.00;;;;2079196;28;20237;-46
2022/05/06 03:11:42;;;;;;;4.57;4.17;;;;;20.40;101320.00;;;;2078615;28;20713;-46
2022/05/06 03:12:43;;;;;;;4.83;4.40;;;;;20.40;101301.00;;;;2077869;28;20764;-47
2022/05/06 03:13:43;;;;;;;4.30;3.97;;;;;20.40;101304.00;;;;2078068;28;20563;-47
2022/05/06 03:14:44;;;;;;;4.90;4.40;;;;;20.40;101302.00;;;;2078088;28;20628;-47
2022/05/06 03:15:45;;;;;;;4.97;4.47;;;;;20.40;101304.00;;;;2077414;28;20706;-46
2022/05/06 03:16:45;;;;;;;4.03;3.70;;;;;20.40;101305.00;;;;2077956;28;20544;-47
2022/05/06 03:17:45;;;;;;;3.90;3.60;;;;;20.40;101299.00;;;;2078131;28;20637;-46
2022/05/06 03:18:46;;;;;;;4.43;4.03;;;;;20.40;101307.00;;;;2078116;28;20622;-47
2022/05/06 03:19:46;;;;;;;5.33;4.00;;;;;20.40;101298.00;;;;2078437;28;20712;-46
2022/05/06 03:20:46;;;;;;;4.77;4.37;;;;;20.40;101306.00;;;;2078280;28;20229;-46
2022/05/06 03:21:53;;;;;;;4.53;4.13;;;;;20.40;101296.00;;;;2078476;28;20228;-47
2022/05/06 03:22:53;;;;;;;4.82;4.43;;;;;20.40;101302.00;;;;2077573;28;20226;-47
2022/05/06 03:23:53;;;;;;;5.17;4.70;;;;;20.40;101304.00;;;;2077284;28;20256;-47
2022/05/06 03:24:54;;;;;;;4.00;3.70;;;;;20.40;101306.00;;;;2077965;28;20217;-46
2022/05/06 03:25:54;;;;;;;4.60;4.10;;;;;20.40;101295.00;;;;2077149;28;20217;-47
2022/05/06 03:26:55;;;;;;;4.97;4.47;;;;;20.40;101304.00;;;;2077917;28;20271;-46
2022/05/06 03:28:07;;;;;;;4.57;4.17;;;;;20.40;101306.00;;;;2077585;28;20213;-46
2022/05/06 03:29:08;;;;;;;4.20;3.90;;;;;20.40;101304.00;;;;2078256;28;20220;-49
2022/05/06 03:30:08;;;;;;;4.37;4.07;;;;;20.40;101304.00;;;;2077829;28;20972;-47
2022/05/06 03:31:11;;;;;;;4.83;4.23;;;;;20.40;101304.00;;;;2077361;28;20213;-48
2022/05/06 03:32:11;;;;;;;4.68;4.20;;;;;20.40;101305.00;;;;2077125;28;20217;-46
2022/05/06 03:33:13;;;;;;;4.57;4.17;;;;;20.40;101302.00;;;;2067984;28;20214;-46
2022/05/06 03:34:15;;;;;;;4.10;3.80;;;;;20.40;101306.00;;;;2077089;28;20324;-46
2022/05/06 03:35:16;;;;;;;4.68;4.28;;;;;20.40;101302.00;;;;2069315;28;20214;-47
2022/05/06 03:36:16;;;;;;;4.10;3.73;;;;;20.40;101297.00;;;;2068792;28;20218;-48
2022/05/06 03:37:17;;;;;;;4.20;3.80;;;;;20.40;101312.00;;;;2069474;28;20457;-48
2022/05/06 03:38:17;;;;;;;4.57;4.27;;;;;20.40;101312.00;;;;2068501;28;20214;-46
2022/05/06 03:39:17;;;;;;;5.00;4.60;;;;;20.40;101304.00;;;;2077837;28;20574;-46
2022/05/06 03:40:18;;;;;;;3.93;3.63;;;;;20.40;101305.00;;;;2076347;28;20313;-47
2022/05/06 03:41:18;;;;;;;4.80;4.40;;;;;20.40;101305.00;;;;2070598;28;20213;-47
2022/05/06 03:42:19;;;;;;;4.43;3.90;;;;;20.40;101308.00;;;;2070912;28;20248;-47
2022/05/06 03:43:19;;;;;;;3.90;3.60;;;;;20.40;101307.00;;;;2069239;28;20210;-47
2022/05/06 03:44:19;;;;;;;4.73;4.33;;;;;20.40;101306.00;;;;2070709;28;20232;-47
2022/05/06 03:45:20;;;;;;;4.20;3.80;;;;;20.40;101304.00;;;;2070307;28;20237;-47
2022/05/06 03:46:20;;;;;;;3.87;3.57;;;;;20.40;101304.00;;;;2070211;28;20271;-46
2022/05/06 03:47:21;;;;;;;4.63;4.23;;;;;20.30;101312.00;;;;2070275;28;20774;-46
2022/05/06 03:48:24;;;;;;;3.93;3.63;;;;;20.40;101308.00;;;;2070375;28;20697;-47
2022/05/06 03:49:25;;;;;;;3.90;3.60;;;;;20.40;101301.00;;;;2070769;28;20452;-48
2022/05/06 03:51:46;;;;;;;3.67;3.38;;;;;20.40;101319.00;;;;2080441;28;20222;-46
2022/05/06 03:52:49;;;;;;;3.63;3.33;;;;;20.40;101314.00;;;;2078714;28;20221;-46
2022/05/06 03:53:50;;;;;;;3.88;3.58;;;;;20.30;101315.00;;;;2078749;28;20522;-47
2022/05/06 03:54:52;;;;;;;4.17;3.87;;;;;20.30;101319.00;;;;2078748;28;20245;-47
2022/05/06 03:55:52;;;;;;;4.05;3.75;;;;;20.30;101317.00;;;;2077989;28;20456;-49
2022/05/06 03:56:53;;;;;;;4.33;3.97;;;;;20.30;101314.00;;;;2070234;28;20318;-47
2022/05/06 03:57:53;;;;;;;4.80;3.97;;;;;20.40;101320.00;;;;2070591;28;20216;-46
2022/05/06 03:58:53;;;;;;;4.43;4.03;;;;;20.30;101319.00;;;;2070506;28;20210;-47
2022/05/06 03:59:54;;;;;;;4.27;3.93;;;;;20.30;101315.00;;;;2070368;28;20217;-48
2022/05/06 04:00:54;;;;;;;4.10;3.80;;;;;20.30;101308.00;;;;2070744;28;20295;-47
2022/05/06 04:01:54;;;;;;;4.43;4.13;;;;;20.40;101311.00;;;;2070261;28;20208;-47
2022/05/06 04:02:55;;;;;;;4.40;4.00;;;;;20.40;101317.00;;;;2070324;28;20198;-46
2022/05/06 04:03:55;;;;;;;4.40;4.00;;;;;20.40;101315.00;;;;2070488;28;20240;-46
2022/05/06 04:04:56;;;;;;;4.43;4.10;;;;;20.30;101311.00;;;;2070367;28;20203;-48
2022/05/06 04:05:56;;;;;;;4.03;3.70;;;;;20.30;101318.00;;;;2069674;28;20217;-47
2022/05/06 04:06:56;;;;;;;3.63;3.33;;;;;20.30;101317.00;;;;2070346;28;20214;-49
2022/05/06 04:07:57;;;;;;;4.63;4.23;;;;;20.30;101319.00;;;;2070678;28;20276;-47
2022/05/06 04:08:57;;;;;;;4.27;3.87;;;;;20.30;101317.00;;;;2070565;28;20206;-46
2022/05/06 04:09:57;;;;;;;3.93;3.63;;;;;20.30;101327.00;;;;2070685;28;20726;-46
2022/05/06 04:10:58;;;;;;;4.67;4.27;;;;;20.30;101321.00;;;;2070376;28;20238;-47
2022/05/06 04:11:59;;;;;;;4.00;3.70;;;;;20.30;101331.00;;;;2069413;28;20234;-47
2022/05/06 04:12:59;;;;;;;4.45;3.90;;;;;20.30;101332.00;;;;2070534;28;20692;-46
2022/05/06 04:14:00;;;;;;;4.17;3.80;;;;;20.30;101326.00;;;;2070658;28;20410;-46
2022/05/06 04:15:00;;;;;;;3.80;3.50;;;;;20.30;101337.00;;;;2070514;28;20245;-47
2022/05/06 04:16:01;;;;;;;4.27;3.87;;;;;20.30;101323.00;;;;2069523;28;20213;-47
2022/05/06 04:17:05;;;;;;;4.75;4.35;;;;;20.30;101332.00;;;;2070142;28;20225;-46
2022/05/06 04:18:05;;;;;;;4.10;3.70;;;;;20.30;101330.00;;;;2075625;28;20244;-46
2022/05/06 04:19:06;;;;;;;3.57;3.27;;;;;20.30;101331.00;;;;2078403;28;20349;-46
2022/05/06 04:24:04;;;;;;;4.40;4.00;;;;;20.30;101330.00;;;;2074721;28;20220;-48
2022/05/06 04:25:04;;;;;;;4.33;3.93;;;;;20.30;101327.00;;;;2085899;28;20307;-46
2022/05/06 04:26:06;;;;;;;4.23;3.50;;;;;20.30;101332.00;;;;2079226;28;20460;-46
2022/05/06 04:27:07;;;;;;;4.30;4.00;;;;;20.30;101330.00;;;;2077875;28;20209;-46
2022/05/06 04:28:07;;;;;;;4.40;4.00;;;;;20.30;101324.00;;;;2078005;28;20210;-48
2022/05/06 04:29:08;;;;;;;4.60;4.10;;;;;20.30;101333.00;;;;2077439;28;20217;-46
2022/05/06 04:30:09;;;;;;;3.80;3.50;;;;;20.30;101333.00;;;;2078586;28;20237;-47
2022/05/06 04:31:09;;;;;;;4.72;4.32;;;;;20.30;101329.00;;;;2073339;28;20222;-48
2022/05/06 04:32:09;;;;;;;3.87;3.57;;;;;20.30;101326.00;;;;2070529;28;20226;-47
2022/05/06 04:33:10;;;;;;;4.30;4.00;;;;;20.30;101333.00;;;;2077094;28;20221;-47
2022/05/06 04:34:10;;;;;;;4.47;4.03;;;;;20.30;101320.00;;;;2070820;28;20210;-47
2022/05/06 04:35:10;;;;;;;4.20;3.90;;;;;20.30;101339.00;;;;2071994;28;20224;-46
2022/05/06 04:36:11;;;;;;;4.73;4.10;;;;;20.30;101330.00;;;;2071117;28;20320;-46
2022/05/06 04:37:11;;;;;;;4.53;4.13;;;;;20.30;101329.00;;;;2071904;28;20218;-46
2022/05/06 04:38:11;;;;;;;4.20;3.90;;;;;20.30;101337.00;;;;2072006;28;20220;-49
2022/05/06 04:39:12;;;;;;;4.97;4.57;;;;;20.30;101334.00;;;;2075682;28;20221;-47
2022/05/06 04:40:12;;;;;;;4.40;4.00;;;;;20.30;101333.00;;;;2080366;28;20279;-49
2022/05/06 04:41:13;;;;;;;3.87;3.53;;;;;20.30;101344.00;;;;2074101;28;20617;-46
2022/05/06 04:42:15;;;;;;;4.70;4.30;;;;;20.30;101334.00;;;;2072019;28;20214;-49
2022/05/06 04:43:20;;;;;;;4.75;3.90;;;;;20.30;101335.00;;;;2071647;28;20213;-47
2022/05/06 04:44:20;;;;;;;3.58;3.38;;;;;20.30;101336.00;;;;2070115;28;20210;-45
2022/05/06 04:45:21;;;;;;;4.63;3.70;;;;;20.30;101337.00;;;;2071697;28;20261;-45
2022/05/06 04:46:21;;;;;;;4.27;3.87;;;;;20.30;101339.00;;;;2070627;28;20233;-45
2022/05/06 04:47:22;;;;;;;4.17;3.77;;;;;20.30;101343.00;;;;2071269;28;20207;-45
2022/05/06 04:48:22;;;;;;;4.20;3.80;;;;;20.30;101341.00;;;;2072039;28;20224;-48
2022/05/06 04:49:23;;;;;;;4.03;3.63;;;;;20.30;101345.00;;;;2071295;28;20218;-47
2022/05/06 04:50:23;;;;;;;4.20;3.90;;;;;20.30;101340.00;;;;2078939;28;20228;-46
2022/05/06 04:51:23;;;;;;;4.10;3.80;;;;;20.30;101346.00;;;;2079123;28;20210;-47
2022/05/06 04:52:24;;;;;;;4.43;4.03;;;;;20.30;101349.00;;;;2079188;28;20313;-47
2022/05/06 04:53:24;;;;;;;4.27;3.87;;;;;20.30;101340.00;;;;2080048;28;20206;-46
2022/05/06 04:54:24;;;;;;;4.87;4.47;;;;;20.30;101344.00;;;;2080004;28;20210;-47
2022/05/06 04:55:25;;;;;;;4.10;3.80;;;;;20.30;101356.00;;;;2071181;28;20284;-48
2022/05/06 04:56:25;;;;;;;4.60;4.20;;;;;20.30;101346.00;;;;2071603;28;20221;-47
2022/05/06 04:57:25;;;;;;;4.10;3.80;;;;;20.30;101356.00;;;;2071741;28;20206;-46
2022/05/06 04:58:28;;;;;;;4.07;3.77;;;;;20.30;101362.00;;;;2071817;28;20214;-46
2022/05/06 04:59:28;;;;;;;4.35;4.05;;;;;20.30;101362.00;;;;2072837;28;20574;-46
2022/05/06 05:00:29;;;;;;;4.20;3.80;;;;;20.30;101356.00;;;;2079784;28;20217;-46
2022/05/06 05:01:29;;;;;;;4.13;3.83;;;;;20.30;101352.00;;;;2080110;28;20296;-48
2022/05/06 05:02:29;;;;;;;4.10;3.80;;;;;20.30;101360.00;;;;2076535;28;20210;-47
2022/05/06 05:03:30;;;;;;;4.40;4.10;;;;;20.30;101365.00;;;;2071735;28;20691;-46
2022/05/06 05:04:30;;;;;;;4.03;3.73;;;;;20.30;101362.00;;;;2071833;28;20214;-46
2022/05/06 05:05:31;;;;;;;3.93;3.63;;;;;20.30;101359.00;;;;2071061;28;20214;-46
2022/05/06 05:06:33;;;;;;;4.63;4.00;;;;;20.30;101362.00;;;;2070735;28;20210;-47
2022/05/06 05:07:33;;;;;;;4.40;4.00;;;;;20.30;101359.00;;;;2070984;28;20230;-49
2022/05/06 05:08:33;;;;;;;4.43;3.93;;;;;20.30;101365.00;;;;2071907;28;20240;-48
2022/05/06 05:09:34;;;;;;;4.20;3.63;;;;;20.30;101364.00;;;;2071789;28;20218;-47
2022/05/06 05:10:34;;;;;;;4.10;3.70;;;;;20.20;101360.00;;;;2071786;28;20581;-49
2022/05/06 05:11:35;;;;;;;3.83;3.53;;;;;20.30;101357.00;;;;2071622;28;20745;-46